createdAt,value
2023-03-24T00:02:04.864Z,63.63
2023-03-24T00:12:26.545Z,63.48
2023-03-24T00:22:51.236Z,63.39
2023-03-24T00:33:13.795Z,63.60
2023-03-24T00:43:35.288Z,63.62
2023-03-24T00:53:58.297Z,63.89
2023-03-24T01:04:20.855Z,64.17
2023-03-24T01:14:42.069Z,64.15
2023-03-24T01:25:05.300Z,64.01
2023-03-24T01:35:29.378Z,63.74
2023-03-24T01:46:14.583Z,63.66
2023-03-24T01:56:40.479Z,63.69
2023-03-24T02:07:04.563Z,63.59
2023-03-24T02:17:52.114Z,64.58
2023-03-24T02:28:29.067Z,64.29
2023-03-24T02:39:09.591Z,64.63
2023-03-24T02:49:48.862Z,64.68
2023-03-24T03:00:18.380Z,64.69
2023-03-24T03:11:05.772Z,64.75
2023-03-24T03:21:31.158Z,64.34
2023-03-24T03:31:59.855Z,64.43
2023-03-24T03:42:21.258Z,64.69
2023-03-24T03:52:44.841Z,64.92
2023-03-24T04:03:37.348Z,64.34
2023-03-24T04:14:00.767Z,64.79
2023-03-24T04:24:42.621Z,64.39
2023-03-24T04:35:32.923Z,64.09
2023-03-24T04:46:05.298Z,64.89
2023-03-24T04:56:51.154Z,64.69
2023-03-24T05:07:17.705Z,64.51
2023-03-24T05:17:42.605Z,64.40
2023-03-24T05:28:05.035Z,64.65
2023-03-24T05:38:27.306Z,64.78
2023-03-24T05:48:50.324Z,64.43
2023-03-24T05:59:14.342Z,64.85
2023-03-24T06:09:58.534Z,64.88
2023-03-24T06:20:21.616Z,64.63
2023-03-24T06:31:05.389Z,64.50
2023-03-24T06:41:30.340Z,64.32
2023-03-24T06:51:55.109Z,64.85
2023-03-24T07:02:18.972Z,64.50
2023-03-24T07:12:44.934Z,64.17
2023-03-24T07:23:06.352Z,64.30
2023-03-24T07:33:44.741Z,64.51
2023-03-24T07:44:05.978Z,64.02
2023-03-24T07:54:43.399Z,64.33
2023-03-24T08:05:14.667Z,63.80
2023-03-24T08:15:46.845Z,64.11
2023-03-24T08:26:10.841Z,63.55
2023-03-24T08:36:32.619Z,63.39
2023-03-24T08:46:53.702Z,63.65
2023-03-24T08:57:15.125Z,63.89
2023-03-24T09:07:37.115Z,62.93
2023-03-24T09:17:58.240Z,63.08
2023-03-24T09:28:20.588Z,62.82
2023-03-24T09:38:41.545Z,62.62
2023-03-24T09:49:04.493Z,62.58
2023-03-24T09:59:28.800Z,62.96
2023-03-24T10:10:01.518Z,62.58
2023-03-24T10:20:53.887Z,62.75
2023-03-24T10:31:17.020Z,63.04
2023-03-24T10:41:38.714Z,62.85
2023-03-24T10:52:09.360Z,62.88
2023-03-24T11:02:32.064Z,63.17
2023-03-24T11:12:53.837Z,63.58
2023-03-24T11:23:18.029Z,63.32
2023-03-24T11:33:46.763Z,63.12
2023-03-24T11:44:25.955Z,63.25
2023-03-24T11:54:47.170Z,63.50
2023-03-24T12:05:24.217Z,63.96
2023-03-24T12:15:56.194Z,63.93
2023-03-24T12:26:21.590Z,63.92
2023-03-24T12:37:06.266Z,63.66
2023-03-24T12:47:57.470Z,63.72
2023-03-24T12:58:23.135Z,63.89
2023-03-24T13:08:50.444Z,63.63
2023-03-24T13:19:18.675Z,63.57
2023-03-24T13:30:19.550Z,63.78
2023-03-24T13:40:41.237Z,63.86
2023-03-24T13:51:09.287Z,63.81
2023-03-24T14:01:41.159Z,63.70
2023-03-24T14:12:02.350Z,63.82
2023-03-24T14:22:30.878Z,63.69
2023-03-24T14:32:57.123Z,63.58
2023-03-24T14:43:29.720Z,63.41
2023-03-24T14:53:51.299Z,63.77
2023-03-24T15:04:13.980Z,63.71
2023-03-24T15:14:35.734Z,63.91
2023-03-24T15:24:58.341Z,63.89
2023-03-24T15:35:22.226Z,63.74
2023-03-24T15:45:57.893Z,63.71
2023-03-24T15:56:28.311Z,63.62
2023-03-24T16:06:53.546Z,63.66
2023-03-24T16:17:15.583Z,63.73
2023-03-24T16:27:36.814Z,63.74
2023-03-24T16:37:58.290Z,63.82
2023-03-24T16:48:19.466Z,64.16
2023-03-24T16:58:40.987Z,64.26
2023-03-24T17:09:04.331Z,64.70
2023-03-24T17:19:26.054Z,65.27
2023-03-24T17:29:47.293Z,64.74
2023-03-24T17:40:10.707Z,65.17
2023-03-24T17:50:32.046Z,64.69
2023-03-24T18:00:54.081Z,64.89
2023-03-24T18:11:15.666Z,65.38
2023-03-24T18:21:37.851Z,65.07
2023-03-24T18:31:58.943Z,65.25
2023-03-24T18:42:20.468Z,65.50
2023-03-24T18:52:42.047Z,65.11
2023-03-24T19:03:03.210Z,65.44
2023-03-24T19:13:24.725Z,64.92
2023-03-24T19:23:47.082Z,64.87
2023-03-24T19:34:08.940Z,64.99
2023-03-24T19:44:30.461Z,64.81
2023-03-24T19:54:52.652Z,65.48
2023-03-24T20:05:15.038Z,65.05
2023-03-24T20:15:36.535Z,64.72
2023-03-24T20:26:01.202Z,65.23
2023-03-24T20:36:22.745Z,65.00
2023-03-24T20:46:45.900Z,65.09
2023-03-24T20:57:12.177Z,64.73
2023-03-24T21:07:33.497Z,64.58
2023-03-24T21:17:54.929Z,64.73
2023-03-24T21:28:19.714Z,65.05
2023-03-24T21:38:41.767Z,65.42
2023-03-24T21:49:03.252Z,64.94
2023-03-24T21:59:24.657Z,64.46
2023-03-24T22:09:45.767Z,64.73
2023-03-24T22:20:09.425Z,64.95
2023-03-24T22:30:30.706Z,64.55
2023-03-24T22:40:55.814Z,64.60
2023-03-24T22:51:19.538Z,64.01
2023-03-24T23:01:41.287Z,64.51
2023-03-24T23:12:02.854Z,63.79
2023-03-24T23:22:23.725Z,63.97
2023-03-24T23:32:47.134Z,64.12
2023-03-24T23:43:08.818Z,64.39
2023-03-24T23:53:30.934Z,64.30
